Time;durP1;ratioP1;P1;durP2;ratioP2;P2;SDS_P1;SDS_P2;PMS_P1;PMS_P2;Temp;Humidity;BMP_temperature;BMP_pressure;BME280_temperature;BME280_humidity;BME280_pressure;Samples;Min_cycle;Max_cycle;Signal;HPM_P1;HPM_P2
2023/01/17 00:01:10;;;;;;;1.10;0.50;;;2.00;99.90;;;;;;5010808;28;20198;-74
2023/01/17 00:09:51;;;;;;;2.03;0.50;;;2.00;99.90;;;;;;5011231;28;20183;-75
2023/01/17 00:11:57;;;;;;;2.37;0.60;;;2.10;99.90;;;;;;5030751;28;20810;-74
2023/01/17 00:14:23;;;;;;;1.20;0.50;;;2.00;99.90;;;;;;5013327;28;20504;-74
2023/01/17 00:16:48;;;;;;;1.20;0.50;;;1.80;99.90;;;;;;5024155;28;20440;-74
2023/01/17 01:33:52;;;;;;;1.30;0.63;;;0.90;99.90;;;;;;5010250;28;20460;-72
2023/01/17 01:36:18;;;;;;;1.23;0.60;;;0.90;99.90;;;;;;5013976;28;20811;-72
2023/01/17 01:38:44;;;;;;;1.40;0.70;;;0.90;99.90;;;;;;5013647;28;20496;-73
2023/01/17 01:41:11;;;;;;;1.60;0.60;;;0.80;99.90;;;;;;5023439;28;20196;-73
2023/01/17 01:43:49;;;;;;;1.67;0.60;;;0.90;99.90;;;;;;5022674;28;20540;-73
2023/01/17 01:46:28;;;;;;;1.07;0.43;;;0.80;99.90;;;;;;5014425;28;20839;-73
2023/01/17 01:49:01;;;;;;;1.20;0.60;;;0.80;99.90;;;;;;5023208;28;20413;-73
2023/01/17 01:51:38;;;;;;;2.80;0.60;;;0.80;99.90;;;;;;5019691;28;20548;-73
2023/01/17 01:54:09;;;;;;;3.20;0.70;;;0.80;99.90;;;;;;5013304;28;20425;-73
2023/01/17 01:56:36;;;;;;;1.40;0.63;;;0.80;99.90;;;;;;5012445;28;20555;-73
2023/01/17 01:59:05;;;;;;;1.03;0.50;;;0.80;99.90;;;;;;5011922;28;20464;-74
2023/01/17 02:01:32;;;;;;;1.73;0.70;;;0.80;99.90;;;;;;5010311;28;20554;-73
2023/01/17 02:03:57;;;;;;;1.00;0.50;;;0.80;99.90;;;;;;5016478;28;20454;-73
2023/01/17 02:06:35;;;;;;;1.23;0.67;;;0.80;99.90;;;;;;5012008;28;20423;-73
2023/01/17 02:09:07;;;;;;;2.07;0.70;;;0.80;99.90;;;;;;5020241;28;20258;-73
2023/01/17 02:11:35;;;;;;;4.30;1.47;;;0.80;99.90;;;;;;5015961;28;20429;-73
2023/01/17 02:14:00;;;;;;;1.20;0.50;;;0.80;99.90;;;;;;5009000;28;20440;-73
2023/01/17 02:16:58;;;;;;;3.00;0.70;;;0.90;99.90;;;;;;5012691;28;20928;-73
2023/01/17 02:19:28;;;;;;;2.43;1.17;;;0.80;99.90;;;;;;5015512;28;20215;-73
2023/01/17 02:22:09;;;;;;;1.20;0.50;;;0.80;99.90;;;;;;5011924;28;20969;-73
2023/01/17 02:24:56;;;;;;;1.20;0.70;;;0.80;99.90;;;;;;5013734;28;20424;-73
2023/01/17 02:27:31;;;;;;;1.10;0.50;;;0.90;99.90;;;;;;5026185;28;20726;-73
2023/01/17 02:30:30;;;;;;;1.30;0.70;;;0.90;99.90;;;;;;5012712;28;20418;-73
2023/01/17 02:33:13;;;;;;;2.17;0.67;;;0.90;99.90;;;;;;5021845;28;20448;-73
2023/01/17 02:36:13;;;;;;;1.77;0.53;;;1.00;99.90;;;;;;5028243;28;20410;-73
2023/01/17 02:38:51;;;;;;;1.43;0.60;;;1.00;99.90;;;;;;5022947;28;20464;-73
2023/01/17 02:41:29;;;;;;;1.10;0.57;;;1.00;99.90;;;;;;5023414;28;20510;-73
2023/01/17 02:43:55;;;;;;;1.30;0.57;;;1.00;99.90;;;;;;5023996;28;20446;-73
2023/01/17 02:46:21;;;;;;;1.10;0.57;;;0.90;99.90;;;;;;5010722;28;20429;-73
2023/01/17 02:48:48;;;;;;;2.63;0.90;;;0.90;99.90;;;;;;5006578;28;20672;-73
2023/01/17 02:51:59;;;;;;;1.90;0.80;;;0.90;99.90;;;;;;5012028;28;20245;-73
2023/01/17 02:54:27;;;;;;;2.33;1.00;;;1.00;99.90;;;;;;4982217;28;20539;-73
2023/01/17 02:57:30;;;;;;;2.57;0.70;;;0.90;99.90;;;;;;5021441;28;20509;-73
2023/01/17 03:00:05;;;;;;;1.60;0.87;;;1.00;99.90;;;;;;5008028;28;20413;-73
2023/01/17 03:02:59;;;;;;;1.70;0.60;;;0.90;99.90;;;;;;5021612;28;20919;-73
2023/01/17 03:05:48;;;;;;;2.87;0.70;;;0.90;99.90;;;;;;5023968;28;21056;-73
2023/01/17 03:08:15;;;;;;;1.40;0.60;;;0.80;99.90;;;;;;5032093;28;20432;-73
2023/01/17 03:10:42;;;;;;;2.27;0.80;;;0.80;99.90;;;;;;5017509;28;20449;-72
2023/01/17 03:13:07;;;;;;;1.07;0.50;;;0.80;99.90;;;;;;5005701;28;20466;-73
2023/01/17 03:15:33;;;;;;;1.60;0.87;;;0.80;99.90;;;;;;5026694;28;20467;-73
2023/01/17 03:18:03;;;;;;;1.20;0.80;;;0.80;99.90;;;;;;5024119;28;20187;-72
2023/01/17 03:20:29;;;;;;;1.53;0.90;;;0.80;99.90;;;;;;5017809;28;20249;-73
2023/01/17 03:22:55;;;;;;;1.43;0.67;;;0.80;99.90;;;;;;5020672;28;20436;-73
2023/01/17 03:25:20;;;;;;;1.30;0.70;;;0.80;99.90;;;;;;5008369;28;20186;-73
2023/01/17 03:27:46;;;;;;;4.70;1.50;;;0.90;99.90;;;;;;5010624;28;20187;-73
2023/01/17 03:30:12;;;;;;;1.30;0.60;;;0.90;99.90;;;;;;5011580;28;20191;-73
2023/01/17 03:32:38;;;;;;;1.10;0.50;;;0.90;99.90;;;;;;5011524;28;20187;-73
2023/01/17 03:35:04;;;;;;;1.23;0.70;;;0.90;99.90;;;;;;5027516;28;20444;-72
2023/01/17 03:37:30;;;;;;;1.37;0.60;;;1.00;99.90;;;;;;5021687;28;20562;-73
2023/01/17 03:39:55;;;;;;;1.10;0.50;;;0.90;99.90;;;;;;5011596;28;20434;-73
2023/01/17 03:42:21;;;;;;;2.57;0.83;;;0.90;99.90;;;;;;5011522;28;20301;-73
2023/01/17 03:44:46;;;;;;;2.07;0.70;;;0.90;99.90;;;;;;5013371;28;20221;-73
2023/01/17 03:47:12;;;;;;;4.60;1.23;;;0.80;99.90;;;;;;5023228;28;20194;-73
2023/01/17 03:49:38;;;;;;;1.50;0.60;;;0.80;99.90;;;;;;5024941;28;20236;-73
2023/01/17 03:52:05;;;;;;;2.07;0.70;;;0.70;99.90;;;;;;5011136;28;20195;-73
2023/01/17 03:54:30;;;;;;;1.53;0.70;;;0.70;99.90;;;;;;5014504;28;20430;-72
2023/01/17 03:56:56;;;;;;;1.20;0.60;;;0.70;99.90;;;;;;5016226;28;20452;-73
2023/01/17 03:59:21;;;;;;;1.60;0.60;;;0.70;99.90;;;;;;5007130;28;20183;-73
2023/01/17 04:01:47;;;;;;;1.40;0.70;;;0.70;99.90;;;;;;5011437;28;20206;-73
2023/01/17 04:04:14;;;;;;;1.40;0.83;;;0.70;99.90;;;;;;5026761;28;20221;-73
2023/01/17 04:06:39;;;;;;;1.30;0.70;;;0.70;99.90;;;;;;5031417;28;20170;-73
2023/01/17 04:09:05;;;;;;;2.23;1.10;;;0.70;99.90;;;;;;5017795;28;20417;-73
2023/01/17 04:11:31;;;;;;;1.20;0.63;;;0.70;99.90;;;;;;5022263;28;20639;-73
2023/01/17 04:13:56;;;;;;;4.20;1.10;;;0.60;99.90;;;;;;5013013;28;20503;-71
2023/01/17 04:16:30;;;;;;;1.10;0.50;;;0.50;99.90;;;;;;5030908;28;20187;-71
2023/01/17 04:18:55;;;;;;;1.20;0.50;;;0.50;99.90;;;;;;5015163;28;20274;-72
2023/01/17 04:21:22;;;;;;;2.27;0.83;;;0.40;99.90;;;;;;5020522;28;20548;-71
2023/01/17 04:23:47;;;;;;;2.47;0.67;;;0.40;99.90;;;;;;5030572;28;20179;-72
2023/01/17 04:26:13;;;;;;;1.20;0.70;;;0.30;99.90;;;;;;5021806;28;20895;-72
2023/01/17 04:28:39;;;;;;;3.60;0.60;;;0.30;99.90;;;;;;5012876;28;20179;-72
2023/01/17 04:31:04;;;;;;;2.07;1.00;;;0.30;99.90;;;;;;5021760;28;20183;-73
2023/01/17 04:33:30;;;;;;;1.33;0.70;;;0.30;99.90;;;;;;5013192;28;20237;-72
2023/01/17 04:35:56;;;;;;;2.93;1.10;;;0.30;99.90;;;;;;5031080;28;20262;-72
2023/01/17 04:38:22;;;;;;;1.30;0.70;;;0.30;99.90;;;;;;5018010;28;20187;-72
2023/01/17 04:40:48;;;;;;;1.10;0.50;;;0.30;99.90;;;;;;5029571;28;20206;-72
2023/01/17 04:43:15;;;;;;;3.80;0.80;;;0.30;99.90;;;;;;5028352;28;21559;-73
2023/01/17 04:45:40;;;;;;;2.17;1.03;;;0.40;99.90;;;;;;5027066;28;20428;-73
2023/01/17 04:48:07;;;;;;;1.60;0.73;;;0.40;99.90;;;;;;5015479;28;20775;-73
2023/01/17 04:50:32;;;;;;;1.10;0.50;;;0.40;99.90;;;;;;5022480;28;20178;-73
2023/01/17 04:52:58;;;;;;;1.10;0.60;;;0.40;99.90;;;;;;5031372;28;20431;-74
2023/01/17 04:55:24;;;;;;;2.43;0.83;;;0.50;99.90;;;;;;5018078;28;20197;-73
2023/01/17 04:57:50;;;;;;;1.37;0.70;;;0.40;99.90;;;;;;5019348;28;20430;-73
2023/01/17 05:00:17;;;;;;;1.90;0.83;;;0.50;99.90;;;;;;5011717;28;20939;-74
2023/01/17 05:02:42;;;;;;;1.30;0.60;;;0.50;99.90;;;;;;5014488;28;20264;-73
2023/01/17 05:05:09;;;;;;;1.40;0.60;;;0.50;99.90;;;;;;5034456;28;20824;-73
2023/01/17 05:07:34;;;;;;;1.80;0.97;;;0.50;99.90;;;;;;5034084;28;20198;-73
2023/01/17 05:10:00;;;;;;;1.70;0.80;;;0.60;99.90;;;;;;5034427;28;20447;-73
2023/01/17 05:12:26;;;;;;;1.97;0.70;;;0.60;99.90;;;;;;5030188;28;20914;-73
2023/01/17 05:14:52;;;;;;;7.37;1.70;;;0.60;99.90;;;;;;5024413;28;20190;-73
2023/01/17 05:17:18;;;;;;;2.13;0.90;;;0.60;99.90;;;;;;5034156;28;20504;-72
2023/01/17 05:19:43;;;;;;;1.30;0.60;;;0.60;99.90;;;;;;5032110;28;20210;-73
2023/01/17 05:22:15;;;;;;;1.50;0.70;;;0.60;99.90;;;;;;5033031;28;20186;-73
2023/01/17 05:24:46;;;;;;;5.23;0.93;;;0.50;99.90;;;;;;5034100;28;20737;-73
2023/01/17 05:27:12;;;;;;;1.20;0.60;;;0.50;99.90;;;;;;5029093;28;20445;-73
2023/01/17 05:29:38;;;;;;;2.33;0.93;;;0.50;99.90;;;;;;5025731;28;20496;-73
2023/01/17 05:32:05;;;;;;;1.93;0.80;;;0.50;99.90;;;;;;5033663;28;20509;-73
2023/01/17 05:34:30;;;;;;;1.40;0.73;;;0.50;99.90;;;;;;5026783;28;20417;-73
2023/01/17 05:36:56;;;;;;;1.57;0.70;;;0.50;99.90;;;;;;5025406;28;20828;-73
2023/01/17 05:39:22;;;;;;;1.53;0.60;;;0.50;99.90;;;;;;5022409;28;20210;-73
2023/01/17 05:41:47;;;;;;;1.80;1.00;;;0.50;99.90;;;;;;5026660;28;20786;-73
2023/01/17 05:44:16;;;;;;;1.37;0.60;;;0.50;99.90;;;;;;5013583;28;20183;-73
2023/01/17 05:46:42;;;;;;;1.50;0.73;;;0.50;99.90;;;;;;5032440;28;20190;-73
2023/01/17 05:49:08;;;;;;;2.27;1.20;;;0.60;99.90;;;;;;5022427;28;20441;-73
2023/01/17 05:51:36;;;;;;;1.70;0.93;;;0.50;99.90;;;;;;5032091;28;20886;-73
2023/01/17 05:54:05;;;;;;;2.03;0.70;;;0.50;99.90;;;;;;5022091;28;20245;-73
2023/01/17 05:56:32;;;;;;;1.20;0.70;;;0.50;99.90;;;;;;5020548;28;20422;-73
2023/01/17 05:58:58;;;;;;;2.10;0.70;;;0.50;99.90;;;;;;5014132;28;20860;-73
2023/01/17 06:01:23;;;;;;;1.70;1.10;;;0.50;99.90;;;;;;5012521;28;20461;-73
2023/01/17 06:03:49;;;;;;;2.13;0.80;;;0.50;99.90;;;;;;5025482;28;20198;-74
2023/01/17 06:06:14;;;;;;;4.60;1.50;;;0.50;99.90;;;;;;5033486;28;20182;-73
2023/01/17 06:08:40;;;;;;;1.70;0.80;;;0.50;99.90;;;;;;5021980;28;20179;-73
2023/01/17 06:11:06;;;;;;;1.97;0.97;;;0.50;99.90;;;;;;5012938;28;20178;-73
2023/01/17 06:13:31;;;;;;;1.40;0.57;;;0.50;99.90;;;;;;5027812;28;20277;-73
2023/01/17 06:16:01;;;;;;;1.20;0.60;;;0.50;99.90;;;;;;5031213;28;20186;-74
2023/01/17 06:18:27;;;;;;;1.30;0.70;;;0.40;99.90;;;;;;5033709;28;20603;-73
2023/01/17 06:20:54;;;;;;;1.50;0.77;;;0.40;99.90;;;;;;5026418;28;21064;-73
2023/01/17 06:23:20;;;;;;;7.90;1.40;;;0.40;99.90;;;;;;5024591;28;20418;-73
2023/01/17 06:25:47;;;;;;;2.70;1.03;;;0.30;99.90;;;;;;5033167;28;20491;-73
2023/01/17 06:28:15;;;;;;;1.50;1.00;;;0.30;99.90;;;;;;5029320;28;20895;-73
2023/01/17 06:30:42;;;;;;;3.83;1.10;;;0.30;99.90;;;;;;5019933;28;20429;-73
2023/01/17 06:33:08;;;;;;;2.40;1.17;;;0.20;99.90;;;;;;5024864;28;20453;-72
2023/01/17 06:35:36;;;;;;;2.47;1.37;;;0.10;99.90;;;;;;5031881;28;20885;-73
2023/01/17 06:38:02;;;;;;;5.17;2.70;;;0.10;99.90;;;;;;5012847;28;20436;-73
2023/01/17 06:40:28;;;;;;;4.73;1.87;;;0.10;99.90;;;;;;5019353;28;20448;-73
2023/01/17 06:42:59;;;;;;;4.17;1.37;;;0.10;99.90;;;;;;5018972;28;20496;-73
2023/01/17 06:45:24;;;;;;;2.80;1.30;;;0.10;99.90;;;;;;5019253;28;20414;-73
2023/01/17 06:47:50;;;;;;;3.50;1.40;;;0.10;99.90;;;;;;5018780;28;20421;-73
2023/01/17 06:50:16;;;;;;;2.90;1.33;;;0.10;99.90;;;;;;5025370;28;20603;-73
2023/01/17 06:52:42;;;;;;;2.27;1.57;;;0.20;99.90;;;;;;5021447;28;20421;-73
2023/01/17 06:55:08;;;;;;;3.47;0.97;;;0.10;99.90;;;;;;5023708;28;20179;-73
2023/01/17 06:57:34;;;;;;;2.60;1.00;;;0.10;99.90;;;;;;5012201;28;20269;-74
2023/01/17 07:00:00;;;;;;;2.00;0.93;;;0.10;99.90;;;;;;5011619;28;20504;-73
2023/01/17 07:02:26;;;;;;;1.30;0.60;;;0.00;99.90;;;;;;5012462;28;20179;-74
2023/01/17 07:04:51;;;;;;;1.50;0.87;;;0.00;99.90;;;;;;5031725;28;20213;-73
2023/01/17 07:07:17;;;;;;;1.40;0.90;;;0.00;99.90;;;;;;5031215;28;20167;-73
2023/01/17 07:09:42;;;;;;;1.83;0.70;;;-0.10;99.90;;;;;;5024018;28;20186;-73
2023/01/17 07:12:08;;;;;;;1.27;0.70;;;-0.10;99.90;;;;;;5017802;28;20515;-73
2023/01/17 07:14:34;;;;;;;1.97;0.87;;;0.00;99.90;;;;;;5024751;28;20186;-73
2023/01/17 07:17:00;;;;;;;3.30;1.40;;;0.00;99.90;;;;;;5030895;28;20410;-73
2023/01/17 07:19:25;;;;;;;4.23;1.23;;;0.00;99.90;;;;;;5012164;28;20314;-73
2023/01/17 07:21:54;;;;;;;3.67;0.90;;;0.00;99.90;;;;;;5016593;28;20676;-73
2023/01/17 07:24:20;;;;;;;1.77;0.90;;;0.00;99.90;;;;;;5023680;28;20176;-73
2023/01/17 07:26:50;;;;;;;2.33;1.20;;;0.00;99.90;;;;;;5011607;28;20426;-73
2023/01/17 07:29:16;;;;;;;3.30;1.60;;;-0.10;99.90;;;;;;5019803;28;20958;-74
2023/01/17 07:31:42;;;;;;;2.00;0.70;;;-0.20;99.90;;;;;;5031202;28;20507;-73
2023/01/17 07:34:08;;;;;;;4.50;1.30;;;-0.30;99.90;;;;;;5031628;28;20787;-74
2023/01/17 07:36:33;;;;;;;6.07;1.23;;;-0.30;99.90;;;;;;5026156;28;20236;-73
2023/01/17 07:38:59;;;;;;;4.13;1.43;;;-0.30;99.90;;;;;;5018763;28;20456;-73
2023/01/17 07:41:25;;;;;;;2.40;1.50;;;-0.30;99.90;;;;;;5016139;28;20218;-73
2023/01/17 07:43:50;;;;;;;8.63;1.57;;;-0.30;99.90;;;;;;5010967;28;20218;-70
2023/01/17 07:46:16;;;;;;;3.40;1.13;;;-0.30;99.90;;;;;;5012404;28;20187;-73
2023/01/17 07:48:42;;;;;;;8.20;1.53;;;-0.20;99.90;;;;;;5030769;28;20201;-72
2023/01/17 07:51:08;;;;;;;14.47;2.93;;;-0.30;99.90;;;;;;5030655;28;20538;-72
2023/01/17 07:53:34;;;;;;;1.93;0.70;;;-0.30;99.90;;;;;;5007131;28;20183;-72
2023/01/17 07:56:04;;;;;;;4.13;1.73;;;-0.30;99.90;;;;;;5024082;28;20696;-72
2023/01/17 07:58:31;;;;;;;19.10;1.50;;;-0.20;99.90;;;;;;5015269;28;20443;-71
2023/01/17 08:01:05;;;;;;;1.70;0.83;;;-0.30;99.90;;;;;;5011941;28;20489;-71
2023/01/17 08:03:33;;;;;;;3.87;1.40;;;-0.20;99.90;;;;;;5002986;28;20418;-71
2023/01/17 08:06:00;;;;;;;2.90;1.73;;;-0.10;99.90;;;;;;5026781;28;20523;-71
2023/01/17 08:08:26;;;;;;;13.23;3.33;;;-0.10;99.90;;;;;;5020112;28;20426;-71
2023/01/17 08:10:52;;;;;;;11.40;5.47;;;-0.10;99.90;;;;;;5013652;28;20424;-70
2023/01/17 08:13:19;;;;;;;9.80;4.43;;;-0.10;99.90;;;;;;5026004;28;20421;-70
2023/01/17 08:15:50;;;;;;;8.57;3.50;;;0.00;99.90;;;;;;5026353;28;20273;-71
2023/01/17 08:18:16;;;;;;;11.13;4.10;;;0.00;99.90;;;;;;5030420;28;20413;-71
2023/01/17 08:20:45;;;;;;;12.87;4.37;;;0.10;99.90;;;;;;5011527;28;21308;-76
2023/01/17 08:23:11;;;;;;;7.57;4.47;;;0.10;99.90;;;;;;5012897;28;20425;-76
2023/01/17 08:25:37;;;;;;;5.47;3.63;;;0.20;99.90;;;;;;5034631;28;20904;-77
2023/01/17 08:28:03;;;;;;;9.50;3.30;;;0.30;99.90;;;;;;5025378;28;20203;-78
2023/01/17 08:30:28;;;;;;;7.43;2.87;;;0.30;99.90;;;;;;5027078;28;20438;-72
2023/01/17 08:32:54;;;;;;;6.10;2.50;;;0.40;99.90;;;;;;5025695;28;20182;-73
2023/01/17 08:35:20;;;;;;;3.73;1.63;;;0.60;99.90;;;;;;5034912;28;20192;-74
2023/01/17 08:37:47;;;;;;;6.37;2.30;;;0.70;99.90;;;;;;5022631;28;20530;-75
2023/01/17 08:40:15;;;;;;;2.60;1.63;;;0.80;99.90;;;;;;5027971;28;20203;-76
2023/01/17 08:42:42;;;;;;;4.70;2.10;;;0.80;99.90;;;;;;5022401;28;20437;-76
2023/01/17 08:45:09;;;;;;;3.30;2.27;;;0.80;99.90;;;;;;5006103;28;20757;-76
2023/01/17 08:47:35;;;;;;;2.33;1.20;;;0.80;99.90;;;;;;5022756;28;20433;-69
2023/01/17 08:50:03;;;;;;;1.87;0.90;;;0.70;99.90;;;;;;5031814;28;20443;-73
2023/01/17 08:52:28;;;;;;;4.30;1.30;;;0.80;99.90;;;;;;5014288;28;20410;-73
2023/01/17 08:54:54;;;;;;;1.50;0.60;;;0.90;99.90;;;;;;5014146;28;20829;-72
2023/01/17 08:57:23;;;;;;;2.37;0.90;;;0.90;99.90;;;;;;5013859;28;20179;-72
2023/01/17 08:59:49;;;;;;;1.43;0.77;;;0.90;99.90;;;;;;5013565;28;20182;-72
2023/01/17 09:02:16;;;;;;;1.30;0.67;;;0.90;99.90;;;;;;5029390;23;20509;-72
2023/01/17 09:04:46;;;;;;;2.13;0.93;;;0.90;99.90;;;;;;5032990;28;20558;-71
2023/01/17 09:07:12;;;;;;;1.80;0.90;;;0.80;99.90;;;;;;5020444;28;20417;-72
2023/01/17 09:09:38;;;;;;;1.57;0.80;;;0.80;99.90;;;;;;5005662;28;20421;-73
2023/01/17 09:12:04;;;;;;;1.40;0.77;;;0.80;99.90;;;;;;5013223;28;20451;-72
2023/01/17 09:14:29;;;;;;;1.60;0.73;;;0.80;99.90;;;;;;5013622;28;20183;-72
2023/01/17 09:16:55;;;;;;;1.50;0.83;;;0.90;99.90;;;;;;5018962;28;20222;-72
2023/01/17 09:19:21;;;;;;;2.40;1.50;;;1.00;99.90;;;;;;5032787;28;20606;-73
2023/01/17 09:21:46;;;;;;;6.30;2.50;;;1.10;99.90;;;;;;5014304;28;21012;-72
2023/01/17 09:24:12;;;;;;;3.07;1.70;;;1.10;99.90;;;;;;5016622;28;20171;-72
2023/01/17 09:26:38;;;;;;;4.13;2.13;;;1.10;99.90;;;;;;5030003;28;20228;-72
2023/01/17 09:29:03;;;;;;;8.90;2.70;;;1.10;99.90;;;;;;5033372;28;20253;-72
2023/01/17 09:31:29;;;;;;;4.70;2.37;;;1.10;99.90;;;;;;5029450;28;20179;-72
2023/01/17 09:33:56;;;;;;;2.67;1.70;;;1.10;99.90;;;;;;5027885;28;20175;-72
2023/01/17 09:36:23;;;;;;;4.53;2.13;;;1.20;99.90;;;;;;5016478;28;20187;-72
2023/01/17 09:38:54;;;;;;;4.80;1.83;;;1.20;99.90;;;;;;5022762;28;20422;-72
2023/01/17 09:41:27;;;;;;;7.87;1.93;;;1.30;99.90;;;;;;5020893;28;20947;-72
2023/01/17 09:44:05;;;;;;;4.83;2.40;;;1.30;99.90;;;;;;5028907;28;20929;-72
2023/01/17 09:46:38;;;;;;;3.23;1.70;;;1.30;99.90;;;;;;5026692;28;20529;-73
2023/01/17 09:49:08;;;;;;;3.93;1.63;;;1.40;99.90;;;;;;5009003;28;20462;-72
2023/01/17 09:51:34;;;;;;;3.80;1.27;;;1.60;99.90;;;;;;5017496;28;20444;-73
2023/01/17 09:54:01;;;;;;;2.50;1.53;;;1.70;99.90;;;;;;5027726;28;20434;-72
2023/01/17 09:56:50;;;;;;;1.90;1.20;;;1.90;99.90;;;;;;5016658;28;20535;-73
2023/01/17 09:59:36;;;;;;;4.00;1.97;;;2.10;99.90;;;;;;5010647;28;20434;-71
2023/01/17 10:02:25;;;;;;;1.73;1.37;;;2.30;99.90;;;;;;5020332;28;20472;-71
2023/01/17 10:05:37;;;;;;;2.07;0.93;;;2.50;99.90;;;;;;4977251;28;20470;-72
2023/01/17 10:08:24;;;;;;;3.27;1.10;;;2.70;99.90;;;;;;4961565;28;20810;-72
2023/01/17 10:11:02;;;;;;;1.83;1.00;;;2.80;99.90;;;;;;5010241;28;20436;-72
2023/01/17 10:14:06;;;;;;;4.20;1.30;;;2.80;99.90;;;;;;5009054;28;20425;-72
2023/01/17 10:16:53;;;;;;;1.57;0.83;;;2.90;99.90;;;;;;5004522;28;20430;-71
2023/01/17 10:19:25;;;;;;;4.00;1.83;;;3.00;99.90;;;;;;5018393;28;20420;-71
2023/01/17 10:22:09;;;;;;;2.13;1.07;;;3.10;99.90;;;;;;5019199;28;20454;-72
2023/01/17 10:24:59;;;;;;;1.70;0.90;;;3.20;99.90;;;;;;5030945;28;20443;-72
2023/01/17 10:27:32;;;;;;;2.57;0.90;;;3.20;99.90;;;;;;5031524;28;20502;-73
2023/01/17 10:30:02;;;;;;;5.83;1.10;;;3.40;99.90;;;;;;5019225;28;20421;-73
2023/01/17 10:32:33;;;;;;;1.40;0.80;;;3.50;99.90;;;;;;5022652;28;20415;-73
2023/01/17 10:35:10;;;;;;;1.70;1.00;;;3.50;99.90;;;;;;5022443;28;20417;-73
2023/01/17 10:37:39;;;;;;;2.73;0.90;;;3.60;99.90;;;;;;5032641;28;20808;-73
2023/01/17 10:40:39;;;;;;;1.50;0.70;;;3.80;99.90;;;;;;5018913;28;20913;-73
2023/01/17 10:43:11;;;;;;;1.17;0.57;;;3.70;99.90;;;;;;5006915;28;20426;-72
2023/01/17 10:45:43;;;;;;;1.53;0.60;;;3.60;99.90;;;;;;5032465;28;20417;-74
2023/01/17 10:48:15;;;;;;;3.10;0.97;;;3.70;99.90;;;;;;5017062;28;20435;-73
2023/01/17 10:50:59;;;;;;;3.47;1.00;;;3.80;99.90;;;;;;5011917;28;20440;-74
2023/01/17 10:54:00;;;;;;;2.70;0.70;;;4.00;99.90;;;;;;5012573;28;20533;-74
2023/01/17 10:56:28;;;;;;;3.13;1.07;;;4.10;99.30;;;;;;5015679;28;20491;-74
2023/01/17 10:59:21;;;;;;;3.77;1.13;;;4.00;99.30;;;;;;5032860;28;20440;-75
2023/01/17 11:01:47;;;;;;;1.40;0.60;;;4.10;99.10;;;;;;5019171;28;20493;-74
2023/01/17 11:04:39;;;;;;;1.30;0.50;;;4.10;98.60;;;;;;5015767;28;20468;-73
2023/01/17 11:07:21;;;;;;;1.63;0.70;;;4.30;98.20;;;;;;5008321;28;20187;-74
2023/01/17 11:09:49;;;;;;;2.70;0.83;;;4.30;98.10;;;;;;5025764;28;20734;-75
2023/01/17 11:12:23;;;;;;;7.80;0.77;;;4.00;98.50;;;;;;5005928;28;20520;-74
2023/01/17 11:14:58;;;;;;;1.60;0.63;;;4.00;97.90;;;;;;5019246;28;20780;-74
2023/01/17 11:17:26;;;;;;;1.30;0.50;;;4.00;98.10;;;;;;5023461;28;20416;-75
2023/01/17 11:19:53;;;;;;;1.97;0.93;;;4.10;98.00;;;;;;5028596;28;20434;-75
2023/01/17 11:22:19;;;;;;;2.30;0.93;;;4.00;98.10;;;;;;5020758;28;20453;-75
2023/01/17 11:24:52;;;;;;;1.40;0.50;;;4.10;98.00;;;;;;5015199;28;20471;-74
2023/01/17 11:27:30;;;;;;;1.33;0.83;;;4.00;98.50;;;;;;5016000;28;20935;-75
2023/01/17 11:30:05;;;;;;;2.30;0.70;;;4.00;97.70;;;;;;5015396;28;20483;-75
2023/01/17 11:32:33;;;;;;;1.20;0.60;;;3.90;97.50;;;;;;5023729;28;20425;-75
2023/01/17 11:35:12;;;;;;;1.97;0.70;;;4.10;97.90;;;;;;4998676;28;20414;-74
2023/01/17 11:37:37;;;;;;;2.20;1.03;;;4.10;98.50;;;;;;5024929;28;20417;-75
2023/01/17 11:40:34;;;;;;;1.20;0.60;;;4.20;98.00;;;;;;5011286;28;20418;-75
2023/01/17 11:43:04;;;;;;;1.80;0.80;;;4.20;98.00;;;;;;5029949;28;20623;-75
2023/01/17 11:45:33;;;;;;;1.77;0.70;;;4.40;97.00;;;;;;5031268;28;21039;-75
2023/01/17 11:48:12;;;;;;;1.30;0.70;;;4.30;96.70;;;;;;5027256;28;20458;-75
2023/01/17 11:50:39;;;;;;;2.10;0.73;;;4.30;96.60;;;;;;5022473;28;20428;-75
2023/01/17 11:53:28;;;;;;;1.57;0.80;;;4.40;96.80;;;;;;5030879;28;20548;-75
2023/01/17 11:56:05;;;;;;;1.57;0.60;;;4.30;97.30;;;;;;5031388;28;20421;-75
2023/01/17 11:58:34;;;;;;;1.40;0.60;;;4.30;97.40;;;;;;5029551;28;20905;-75
2023/01/17 12:01:26;;;;;;;1.33;0.60;;;4.20;97.20;;;;;;5030204;28;20494;-75
2023/01/17 12:04:07;;;;;;;1.50;0.60;;;4.20;97.00;;;;;;5030369;28;20432;-75
2023/01/17 12:06:48;;;;;;;1.63;0.70;;;4.00;97.70;;;;;;5019475;28;20445;-74
2023/01/17 12:09:23;;;;;;;1.73;0.60;;;4.10;98.20;;;;;;5019387;28;20460;-75
2023/01/17 12:15:30;;;;;;;1.90;0.50;;;4.20;97.00;;;;;;5001483;28;20476;-74
2023/01/17 12:17:59;;;;;;;1.30;0.63;;;4.20;97.00;;;;;;4989099;28;20509;-75
2023/01/17 12:20:40;;;;;;;2.23;0.97;;;4.00;96.90;;;;;;4986286;28;20463;-75
2023/01/17 12:23:45;;;;;;;1.77;0.70;;;3.90;97.10;;;;;;4993062;28;20437;-75
2023/01/17 12:26:25;;;;;;;1.10;0.50;;;3.80;96.70;;;;;;5008644;28;20421;-75
2023/01/17 12:29:21;;;;;;;1.57;0.80;;;3.60;96.20;;;;;;5031131;28;20420;-75
2023/01/17 12:32:28;;;;;;;4.40;1.13;;;3.60;97.20;;;;;;5029263;28;20504;-75
2023/01/17 12:35:00;;;;;;;1.50;0.67;;;3.60;97.30;;;;;;4984557;28;20501;-74
2023/01/17 12:37:36;;;;;;;1.43;0.73;;;3.60;98.10;;;;;;5015488;28;20457;-75
2023/01/17 12:40:23;;;;;;;1.30;0.50;;;3.60;97.60;;;;;;5014487;28;20409;-75
2023/01/17 12:43:01;;;;;;;7.90;0.90;;;3.50;96.80;;;;;;5004121;28;20549;-75
2023/01/17 12:45:33;;;;;;;2.33;0.80;;;3.50;97.50;;;;;;5007684;28;20897;-74
2023/01/17 12:48:09;;;;;;;1.10;0.50;;;3.60;98.00;;;;;;5028690;28;20495;-74
2023/01/17 12:50:51;;;;;;;1.10;0.50;;;3.40;98.00;;;;;;5006440;28;20448;-74
2023/01/17 12:53:23;;;;;;;1.20;0.60;;;3.40;98.40;;;;;;5017421;28;20455;-74
2023/01/17 12:55:55;;;;;;;1.20;0.50;;;3.50;98.60;;;;;;5031112;28;20894;-75
2023/01/17 12:58:25;;;;;;;1.40;0.60;;;3.40;98.10;;;;;;5022632;28;20816;-74
2023/01/17 13:01:01;;;;;;;1.83;0.73;;;3.40;97.20;;;;;;5014123;28;20949;-75
2023/01/17 13:03:57;;;;;;;1.20;0.67;;;3.40;97.70;;;;;;5017222;28;20578;-75
2023/01/17 13:06:57;;;;;;;1.20;0.60;;;3.30;97.10;;;;;;5030679;28;20799;-74
2023/01/17 13:09:24;;;;;;;2.27;0.60;;;3.30;97.10;;;;;;5012007;28;20414;-73
2023/01/17 13:11:59;;;;;;;1.10;0.50;;;3.40;97.20;;;;;;5013628;28;20437;-74
2023/01/17 13:14:24;;;;;;;1.30;0.70;;;3.30;96.20;;;;;;5014104;28;20936;-74
2023/01/17 13:16:58;;;;;;;1.30;0.60;;;3.30;96.30;;;;;;5021772;28;20448;-74
2023/01/17 13:19:43;;;;;;;1.20;0.50;;;3.40;96.90;;;;;;5026749;28;20221;-73
2023/01/17 13:22:18;;;;;;;1.10;0.53;;;3.30;96.10;;;;;;5031492;28;20539;-74
2023/01/17 13:25:02;;;;;;;1.30;0.60;;;3.20;95.70;;;;;;5034382;28;21058;-74
2023/01/17 13:27:51;;;;;;;1.20;0.53;;;3.30;96.10;;;;;;5010041;28;20419;-74
2023/01/17 13:30:55;;;;;;;1.20;0.60;;;3.30;97.50;;;;;;5020671;28;20405;-73
2023/01/17 13:33:45;;;;;;;1.20;0.70;;;3.30;97.30;;;;;;5021988;28;20413;-74
2023/01/17 13:36:35;;;;;;;4.43;0.83;;;3.20;96.80;;;;;;5033554;28;20467;-73
2023/01/17 13:39:30;;;;;;;2.17;0.97;;;3.10;96.90;;;;;;5025067;28;20436;-73
2023/01/17 13:42:16;;;;;;;1.10;0.50;;;3.10;96.90;;;;;;5027364;28;20469;-75
2023/01/17 13:44:44;;;;;;;2.17;0.70;;;3.20;97.70;;;;;;5028774;28;20414;-74
2023/01/17 13:47:10;;;;;;;1.10;0.50;;;3.20;97.30;;;;;;5034229;28;20760;-75
2023/01/17 13:49:47;;;;;;;1.20;0.60;;;3.20;97.20;;;;;;5025435;28;20429;-74
2023/01/17 13:52:18;;;;;;;3.73;0.83;;;3.10;96.70;;;;;;5031322;28;20421;-75
2023/01/17 13:54:45;;;;;;;1.60;0.90;;;3.20;97.10;;;;;;5020352;28;20440;-74
2023/01/17 13:57:24;;;;;;;4.33;0.70;;;3.10;97.10;;;;;;5032101;28;20445;-75
2023/01/17 13:59:51;;;;;;;1.80;0.97;;;3.10;97.60;;;;;;4994138;28;20755;-75
2023/01/17 14:02:31;;;;;;;1.20;0.60;;;3.10;97.60;;;;;;5033655;28;20564;-75
2023/01/17 14:05:22;;;;;;;1.87;0.83;;;3.10;97.30;;;;;;5026264;28;20424;-74
2023/01/17 14:08:13;;;;;;;2.00;0.80;;;3.10;98.00;;;;;;5026290;28;20426;-74
2023/01/17 14:10:44;;;;;;;1.90;0.90;;;2.90;98.50;;;;;;5023275;28;20432;-74
2023/01/17 14:13:28;;;;;;;1.40;0.60;;;2.90;98.90;;;;;;5021480;28;20457;-74
2023/01/17 14:15:53;;;;;;;1.97;0.47;;;2.90;98.00;;;;;;5028024;28;20471;-74
2023/01/17 14:18:37;;;;;;;2.00;0.90;;;2.90;98.10;;;;;;5026006;28;20753;-74
2023/01/17 14:21:23;;;;;;;1.50;0.70;;;2.80;97.50;;;;;;5010744;28;20202;-74
2023/01/17 14:23:59;;;;;;;1.10;0.40;;;2.80;98.00;;;;;;5029014;28;20426;-73
2023/01/17 14:26:36;;;;;;;2.37;0.80;;;2.80;97.70;;;;;;5015212;28;20414;-74
2023/01/17 14:29:39;;;;;;;1.47;0.73;;;2.80;98.50;;;;;;5021214;28;20417;-73
2023/01/17 14:32:18;;;;;;;1.60;0.67;;;2.70;98.30;;;;;;5028514;28;20879;-73
2023/01/17 14:34:46;;;;;;;1.40;0.80;;;2.70;98.20;;;;;;5014417;28;20414;-74
2023/01/17 14:37:18;;;;;;;2.37;0.70;;;2.70;98.00;;;;;;5027768;28;20468;-73
2023/01/17 14:39:45;;;;;;;1.10;0.50;;;2.70;98.20;;;;;;5013816;28;20422;-74
2023/01/17 14:42:20;;;;;;;1.43;0.60;;;2.70;98.00;;;;;;5012835;28;20540;-73
2023/01/17 14:44:48;;;;;;;3.63;0.97;;;2.60;98.00;;;;;;5026568;28;20429;-73